Anahola, Hawaii
Current Conditions -  °F | °C
As of 3:53 PM on Thursday 18 Dec 2014 (Local Time) from PHLI Reporting Station
Light Rain Light Rain  
Wind Chill: 74°   Ceiling: 1900
Heat Index: 74°   Visibility: 4mi
Dew Point: 69°   Wind: 13mph
Humidity: 85%   Direction: 40°NE
Pressure: 30.1"   Gusts: NA
Location:  22.14°N, 159.31°W
Report Text: PHLI 190153Z 04011KT 4SM -RA FEW013 BKN019 OVC037 23/21 A3010 RMK AO2 RAB05E20B46 SLP188 P0002 T02330206
Loading
Personal Weather Stations






























Interactive Weather Map New forecast layout! Learn more

10-Day Weather Forecast

Advertisements
Track Severe Weather on mobile